CheckWX is a tool to help pilots better visualize weather data.  It is not intended as a substitute for an official pre-flight weather briefing.

08:35:18 UTC

KSQI METAR
Whiteside Co Arpt-Jos H Bittorf Field Airport
Sterling/Rockfalls, Illinois, USA
Current

39 mins ago

KSQI 220756Z AUTO 05003KT 9SM CLR M08/M10 A3040 RMK AO2 SLP318 T10781100 FZRANO
Observed
Feb-22 @ 07:56 UTC
Wind
  • 050° at 3 KTS
Visibility
9 SM
Flight Rules
VFR
Cloud Levels
  • Clear skies
Temperature
-8°C / 18°F
Dewpoint
-10°C / 14°F
Humidity
86%
Altimeter
30.4" Hg
Pressure
1031.8 hPa
Previous

2 hours ago

KSQI 220656Z AUTO 32003KT 9SM CLR M09/M12 A3038 RMK AO2 SLP312 T10941117 FZRANO
Observed
Feb-22 @ 06:56 UTC
Wind
  • 320° at 3 KTS
Visibility
9 SM
Flight Rules
VFR
Cloud Levels
  • Clear skies
Temperature
-9°C / 16°F
Dewpoint
-12°C / 10°F
Humidity
79%
Altimeter
30.38" Hg
Pressure
1031.2 hPa
Previous

3 hours ago

KSQI 220556Z AUTO 00000KT 10SM CLR M08/M10 A3036 RMK AO2 SLP302 T10781100 11033 21083 400061083 53013 FZRANO
Observed
Feb-22 @ 05:56 UTC
Visibility
10 SM
Flight Rules
VFR
Cloud Levels
  • Clear skies
Temperature
-8°C / 18°F
Dewpoint
-10°C / 14°F
Humidity
86%
Altimeter
30.36" Hg
Pressure
1030.2 hPa